sensor_id;sensor_type;location;lat;lon;timestamp;pressure;altitude;pressure_sealevel;temperature;humidity
38718;BME280;24468;52.128;9.278;2023-04-06T00:01:37;101104.19;;;2.61;100.00
38718;BME280;24468;52.128;9.278;2023-04-06T00:04:03;101098.91;;;2.38;100.00
38718;BME280;24468;52.128;9.278;2023-04-06T00:06:29;101100.75;;;2.11;100.00
38718;BME280;24468;52.128;9.278;2023-04-06T00:08:55;101099.84;;;2.15;100.00
38718;BME280;24468;52.128;9.278;2023-04-06T00:11:22;101098.03;;;2.27;100.00
38718;BME280;24468;52.128;9.278;2023-04-06T00:13:47;101091.84;;;2.34;100.00
38718;BME280;24468;52.128;9.278;2023-04-06T00:16:13;101094.50;;;2.34;100.00
38718;BME280;24468;52.128;9.278;2023-04-06T00:18:39;101088.28;;;2.32;100.00
38718;BME280;24468;52.128;9.278;2023-04-06T00:21:05;101081.19;;;2.26;100.00
38718;BME280;24468;52.128;9.278;2023-04-06T00:23:31;101078.53;;;2.25;100.00
38718;BME280;24468;52.128;9.278;2023-04-06T00:25:56;101077.69;;;1.95;100.00
38718;BME280;24468;52.128;9.278;2023-04-06T00:28:22;101075.03;;;1.98;100.00
38718;BME280;24468;52.128;9.278;2023-04-06T00:30:52;101075.91;;;1.77;100.00
38718;BME280;24468;52.128;9.278;2023-04-06T00:33:19;101075.00;;;1.78;100.00
38718;BME280;24468;52.128;9.278;2023-04-06T00:35:45;101072.34;;;1.86;100.00
38718;BME280;24468;52.128;9.278;2023-04-06T00:38:12;101075.00;;;1.96;100.00
38718;BME280;24468;52.128;9.278;2023-04-06T00:40:37;101066.16;;;2.04;100.00
38718;BME280;24468;52.128;9.278;2023-04-06T00:43:07;101061.72;;;2.09;100.00
38718;BME280;24468;52.128;9.278;2023-04-06T00:45:36;101059.03;;;2.07;100.00
38718;BME280;24468;52.128;9.278;2023-04-06T00:48:01;101056.38;;;2.09;100.00
38718;BME280;24468;52.128;9.278;2023-04-06T00:50:27;101061.69;;;2.10;100.00
38718;BME280;24468;52.128;9.278;2023-04-06T00:52:54;101066.13;;;2.16;100.00
38718;BME280;24468;52.128;9.278;2023-04-06T00:55:20;101058.13;;;2.16;100.00
38718;BME280;24468;52.128;9.278;2023-04-06T00:57:45;101058.16;;;2.10;100.00
38718;BME280;24468;52.128;9.278;2023-04-06T01:00:12;101059.03;;;2.06;100.00
38718;BME280;24468;52.128;9.278;2023-04-06T01:02:38;101053.72;;;2.07;100.00
38718;BME280;24468;52.128;9.278;2023-04-06T01:05:04;101056.38;;;2.10;100.00
38718;BME280;24468;52.128;9.278;2023-04-06T01:07:30;101047.50;;;2.08;100.00
38718;BME280;24468;52.128;9.278;2023-04-06T01:09:56;101048.41;;;1.96;100.00
38718;BME280;24468;52.128;9.278;2023-04-06T01:12:21;101047.53;;;2.04;100.00
38718;BME280;24468;52.128;9.278;2023-04-06T01:14:47;101039.50;;;2.05;100.00
38718;BME280;24468;52.128;9.278;2023-04-06T01:17:13;101036.88;;;2.04;100.00
38718;BME280;24468;52.128;9.278;2023-04-06T01:19:39;101039.50;;;2.05;100.00
38718;BME280;24468;52.128;9.278;2023-04-06T01:22:06;101033.31;;;2.02;100.00
38718;BME280;24468;52.128;9.278;2023-04-06T01:24:32;101030.66;;;1.97;100.00
38718;BME280;24468;52.128;9.278;2023-04-06T01:26:58;101024.47;;;1.95;100.00
38718;BME280;24468;52.128;9.278;2023-04-06T01:29:24;101032.44;;;2.01;100.00
38718;BME280;24468;52.128;9.278;2023-04-06T01:31:50;101028.91;;;1.88;100.00
38718;BME280;24468;52.128;9.278;2023-04-06T01:34:16;101029.78;;;1.96;100.00
38718;BME280;24468;52.128;9.278;2023-04-06T01:36:41;101028.88;;;2.04;100.00
38718;BME280;24468;52.128;9.278;2023-04-06T01:39:07;101029.75;;;1.99;100.00
38718;BME280;24468;52.128;9.278;2023-04-06T01:41:33;101030.66;;;2.02;100.00
38718;BME280;24468;52.128;9.278;2023-04-06T01:43:59;101028.03;;;1.92;100.00
38718;BME280;24468;52.128;9.278;2023-04-06T01:46:24;101029.81;;;1.87;100.00
38718;BME280;24468;52.128;9.278;2023-04-06T01:48:50;101027.13;;;1.89;100.00
38718;BME280;24468;52.128;9.278;2023-04-06T01:51:16;101021.81;;;1.93;100.00
38718;BME280;24468;52.128;9.278;2023-04-06T01:53:41;101025.34;;;2.09;100.00
38718;BME280;24468;52.128;9.278;2023-04-06T01:56:07;101010.25;;;2.05;100.00
38718;BME280;24468;52.128;9.278;2023-04-06T01:58:33;101009.34;;;2.09;100.00
38718;BME280;24468;52.128;9.278;2023-04-06T02:00:58;101011.13;;;2.10;100.00
38718;BME280;24468;52.128;9.278;2023-04-06T02:03:24;101010.22;;;2.08;100.00
38718;BME280;24468;52.128;9.278;2023-04-06T02:05:49;101005.78;;;2.10;100.00
38718;BME280;24468;52.128;9.278;2023-04-06T02:08:15;101012.03;;;2.00;100.00
38718;BME280;24468;52.128;9.278;2023-04-06T02:10:40;101007.63;;;1.90;100.00
38718;BME280;24468;52.128;9.278;2023-04-06T02:13:06;101004.97;;;1.87;100.00
38718;BME280;24468;52.128;9.278;2023-04-06T02:15:31;101006.75;;;1.82;100.00
38718;BME280;24468;52.128;9.278;2023-04-06T02:17:58;101012.94;;;1.81;100.00
38718;BME280;24468;52.128;9.278;2023-04-06T02:20:24;101003.19;;;1.78;100.00
38718;BME280;24468;52.128;9.278;2023-04-06T02:22:49;100999.66;;;1.77;100.00
38718;BME280;24468;52.128;9.278;2023-04-06T02:25:15;101004.06;;;1.86;100.00
38718;BME280;24468;52.128;9.278;2023-04-06T02:27:41;101002.28;;;1.91;100.00
38718;BME280;24468;52.128;9.278;2023-04-06T02:30:07;101004.94;;;1.88;100.00
38718;BME280;24468;52.128;9.278;2023-04-06T02:32:32;100992.53;;;1.95;100.00
38718;BME280;24468;52.128;9.278;2023-04-06T02:34:58;100996.09;;;1.95;100.00
38718;BME280;24468;52.128;9.278;2023-04-06T02:37:23;100996.97;;;1.91;100.00
38718;BME280;24468;52.128;9.278;2023-04-06T02:39:50;100988.13;;;1.82;100.00
38718;BME280;24468;52.128;9.278;2023-04-06T02:42:16;100996.09;;;1.82;100.00
38718;BME280;24468;52.128;9.278;2023-04-06T02:44:42;100994.34;;;1.79;100.00
38718;BME280;24468;52.128;9.278;2023-04-06T02:47:08;100991.66;;;1.84;100.00
38718;BME280;24468;52.128;9.278;2023-04-06T02:49:34;100991.66;;;1.84;100.00
38718;BME280;24468;52.128;9.278;2023-04-06T02:52:00;100984.59;;;1.81;100.00
38718;BME280;24468;52.128;9.278;2023-04-06T02:54:25;100979.28;;;1.73;100.00
38718;BME280;24468;52.128;9.278;2023-04-06T02:56:51;100984.59;;;1.55;100.00
38718;BME280;24468;52.128;9.278;2023-04-06T02:59:16;100989.03;;;1.65;100.00
38718;BME280;24468;52.128;9.278;2023-04-06T03:01:42;100984.56;;;1.72;100.00
38718;BME280;24468;52.128;9.278;2023-04-06T03:04:07;100988.97;;;1.84;100.00
38718;BME280;24468;52.128;9.278;2023-04-06T03:06:33;100986.34;;;1.74;100.00
38718;BME280;24468;52.128;9.278;2023-04-06T03:08:58;100981.06;;;1.62;100.00
38718;BME280;24468;52.128;9.278;2023-04-06T03:11:24;100984.59;;;1.70;100.00
38718;BME280;24468;52.128;9.278;2023-04-06T03:13:51;100980.19;;;1.51;100.00
38718;BME280;24468;52.128;9.278;2023-04-06T03:16:17;100979.28;;;1.55;100.00
38718;BME280;24468;52.128;9.278;2023-04-06T03:18:42;100975.72;;;1.61;100.00
38718;BME280;24468;52.128;9.278;2023-04-06T03:21:10;100973.94;;;1.64;100.00
38718;BME280;24468;52.128;9.278;2023-04-06T03:23:35;100978.41;;;1.65;100.00
38718;BME280;24468;52.128;9.278;2023-04-06T03:26:02;100978.38;;;1.67;100.00
38718;BME280;24468;52.128;9.278;2023-04-06T03:28:27;100987.25;;;1.69;100.00
38718;BME280;24468;52.128;9.278;2023-04-06T03:30:53;100981.06;;;1.73;100.00
38718;BME280;24468;52.128;9.278;2023-04-06T03:33:19;100974.84;;;1.68;100.00
38718;BME280;24468;52.128;9.278;2023-04-06T03:35:44;100974.84;;;1.71;100.00
38718;BME280;24468;52.128;9.278;2023-04-06T03:38:10;100977.50;;;1.66;100.00
38718;BME280;24468;52.128;9.278;2023-04-06T03:40:35;100979.25;;;1.67;100.00
38718;BME280;24468;52.128;9.278;2023-04-06T03:43:01;100969.53;;;1.60;100.00
38718;BME280;24468;52.128;9.278;2023-04-06T03:45:26;100968.63;;;1.66;100.00
38718;BME280;24468;52.128;9.278;2023-04-06T03:47:52;100972.19;;;1.39;100.00
38718;BME280;24468;52.128;9.278;2023-04-06T03:50:17;100976.59;;;1.58;100.00
38718;BME280;24468;52.128;9.278;2023-04-06T03:52:43;100973.06;;;1.56;100.00
38718;BME280;24468;52.128;9.278;2023-04-06T03:55:09;100975.75;;;1.54;100.00
38718;BME280;24468;52.128;9.278;2023-04-06T03:57:34;100981.03;;;1.39;100.00
38718;BME280;24468;52.128;9.278;2023-04-06T04:00:00;100981.94;;;1.46;100.00
38718;BME280;24468;52.128;9.278;2023-04-06T04:02:25;100975.75;;;1.41;100.00
38718;BME280;24468;52.128;9.278;2023-04-06T04:04:51;100981.03;;;1.19;100.00
38718;BME280;24468;52.128;9.278;2023-04-06T04:07:17;100981.91;;;1.03;100.00
38718;BME280;24468;52.128;9.278;2023-04-06T04:09:42;100986.31;;;1.07;100.00
38718;BME280;24468;52.128;9.278;2023-04-06T04:12:08;100991.59;;;0.78;100.00
38718;BME280;24468;52.128;9.278;2023-04-06T04:14:33;100995.06;;;0.57;100.00
38718;BME280;24468;52.128;9.278;2023-04-06T04:16:59;101002.09;;;0.44;100.00
38718;BME280;24468;52.128;9.278;2023-04-06T04:19:25;101004.72;;;0.41;100.00
38718;BME280;24468;52.128;9.278;2023-04-06T04:21:50;101007.44;;;0.52;100.00
38718;BME280;24468;52.128;9.278;2023-04-06T04:24:16;101004.88;;;0.75;100.00
38718;BME280;24468;52.128;9.278;2023-04-06T04:26:42;101001.34;;;0.77;100.00
38718;BME280;24468;52.128;9.278;2023-04-06T04:29:07;101011.91;;;0.68;100.00
38718;BME280;24468;52.128;9.278;2023-04-06T04:31:33;101006.63;;;0.70;100.00
38718;BME280;24468;52.128;9.278;2023-04-06T04:33:59;101000.44;;;0.72;100.00
38718;BME280;24468;52.128;9.278;2023-04-06T04:36:25;101005.75;;;0.78;100.00
38718;BME280;24468;52.128;9.278;2023-04-06T04:38:52;101000.44;;;0.75;100.00
38718;BME280;24468;52.128;9.278;2023-04-06T04:41:17;101005.75;;;0.78;100.00
38718;BME280;24468;52.128;9.278;2023-04-06T04:43:43;101002.16;;;0.65;100.00
38718;BME280;24468;52.128;9.278;2023-04-06T04:46:09;101000.44;;;0.75;100.00
38718;BME280;24468;52.128;9.278;2023-04-06T04:48:34;100993.41;;;0.88;100.00
38718;BME280;24468;52.128;9.278;2023-04-06T04:51:00;101000.47;;;0.87;100.00
38718;BME280;24468;52.128;9.278;2023-04-06T04:53:26;100993.41;;;0.96;100.00
38718;BME280;24468;52.128;9.278;2023-04-06T04:55:51;100996.94;;;0.98;100.00
38718;BME280;24468;52.128;9.278;2023-04-06T04:58:17;101004.94;;;1.05;100.00
38718;BME280;24468;52.128;9.278;2023-04-06T05:00:47;101007.63;;;1.10;100.00
38718;BME280;24468;52.128;9.278;2023-04-06T05:03:24;101001.41;;;1.05;100.00
38718;BME280;24468;52.128;9.278;2023-04-06T05:05:51;101002.31;;;1.10;100.00
38718;BME280;24468;52.128;9.278;2023-04-06T05:08:16;100998.75;;;1.20;100.00
38718;BME280;24468;52.128;9.278;2023-04-06T05:10:43;100999.66;;;1.24;100.00
38718;BME280;24468;52.128;9.278;2023-04-06T05:13:09;100998.78;;;1.29;100.00
38718;BME280;24468;52.128;9.278;2023-04-06T05:15:35;100997.03;;;1.35;100.00
38718;BME280;24468;52.128;9.278;2023-04-06T05:18:07;101002.34;;;1.35;100.00
38718;BME280;24468;52.128;9.278;2023-04-06T05:20:34;100997.00;;;1.36;100.00
38718;BME280;24468;52.128;9.278;2023-04-06T05:23:00;100994.34;;;1.41;100.00
38718;BME280;24468;52.128;9.278;2023-04-06T05:25:25;100998.78;;;1.45;100.00
38718;BME280;24468;52.128;9.278;2023-04-06T05:27:51;100989.03;;;1.48;100.00
38718;BME280;24468;52.128;9.278;2023-04-06T05:30:17;100982.84;;;1.57;100.00
38718;BME280;24468;52.128;9.278;2023-04-06T05:32:43;100989.00;;;1.64;100.00
38718;BME280;24468;52.128;9.278;2023-04-06T05:35:10;100989.91;;;1.73;100.00
38718;BME280;24468;52.128;9.278;2023-04-06T05:37:36;100989.91;;;1.81;100.00
38718;BME280;24468;52.128;9.278;2023-04-06T05:40:02;100985.47;;;1.82;100.00
38718;BME280;24468;52.128;9.278;2023-04-06T05:42:35;100993.44;;;1.89;100.00
38718;BME280;24468;52.128;9.278;2023-04-06T05:45:02;100992.53;;;1.95;100.00
38718;BME280;24468;52.128;9.278;2023-04-06T05:47:27;100987.19;;;2.03;100.00
38718;BME280;24468;52.128;9.278;2023-04-06T05:49:53;100998.69;;;2.12;100.00
38718;BME280;24468;52.128;9.278;2023-04-06T05:52:18;100993.38;;;2.17;100.00
38718;BME280;24468;52.128;9.278;2023-04-06T05:54:44;100987.13;;;2.24;100.00
38718;BME280;24468;52.128;9.278;2023-04-06T05:57:09;100993.34;;;2.26;100.00
38718;BME280;24468;52.128;9.278;2023-04-06T05:59:35;100992.38;;;2.41;100.00
38718;BME280;24468;52.128;9.278;2023-04-06T06:02:00;100993.22;;;2.52;100.00
38718;BME280;24468;52.128;9.278;2023-04-06T06:04:26;100993.19;;;2.61;100.00
38718;BME280;24468;52.128;9.278;2023-04-06T06:06:52;100986.09;;;2.60;100.00
38718;BME280;24468;52.128;9.278;2023-04-06T06:09:17;100980.72;;;2.70;100.00
38718;BME280;24468;52.128;9.278;2023-04-06T06:11:43;100981.59;;;2.68;100.00
38718;BME280;24468;52.128;9.278;2023-04-06T06:14:08;100989.66;;;2.64;100.00
38718;BME280;24468;52.128;9.278;2023-04-06T06:16:34;100992.19;;;2.84;100.00
38718;BME280;24468;52.128;9.278;2023-04-06T06:19:00;100981.53;;;2.82;100.00
38718;BME280;24468;52.128;9.278;2023-04-06T06:21:26;100981.47;;;2.95;100.00
38718;BME280;24468;52.128;9.278;2023-04-06T06:23:51;100988.69;;;2.74;100.00
38718;BME280;24468;52.128;9.278;2023-04-06T06:26:19;100993.34;;;2.31;100.00
38718;BME280;24468;52.128;9.278;2023-04-06T06:28:44;100995.97;;;2.32;100.00
38718;BME280;24468;52.128;9.278;2023-04-06T06:31:10;100988.97;;;2.11;100.00
38718;BME280;24468;52.128;9.278;2023-04-06T06:33:36;100980.88;;;2.42;100.00
38718;BME280;24468;52.128;9.278;2023-04-06T06:36:01;100989.63;;;2.72;100.00
38718;BME280;24468;52.128;9.278;2023-04-06T06:38:27;100980.75;;;2.66;100.00
38718;BME280;24468;52.128;9.278;2023-04-06T06:40:52;100980.72;;;2.73;100.00
38718;BME280;24468;52.128;9.278;2023-04-06T06:43:18;100989.63;;;2.62;100.00
38718;BME280;24468;52.128;9.278;2023-04-06T06:45:44;100983.41;;;2.70;100.00
38718;BME280;24468;52.128;9.278;2023-04-06T06:48:09;100978.94;;;2.73;100.00
38718;BME280;24468;52.128;9.278;2023-04-06T06:50:36;100984.19;;;2.84;100.00
38718;BME280;24468;52.128;9.278;2023-04-06T06:53:01;100993.91;;;2.93;100.00
38718;BME280;24468;52.128;9.278;2023-04-06T06:55:27;100984.78;;;3.32;100.00
38718;BME280;24468;52.128;9.278;2023-04-06T06:57:53;100987.56;;;3.14;100.00
38718;BME280;24468;52.128;9.278;2023-04-06T07:00:19;100979.31;;;3.47;100.00
38718;BME280;24468;52.128;9.278;2023-04-06T07:02:47;100981.78;;;3.67;100.00
38718;BME280;24468;52.128;9.278;2023-04-06T07:05:13;100981.06;;;3.50;100.00
38718;BME280;24468;52.128;9.278;2023-04-06T07:07:39;100987.25;;;3.53;100.00
38718;BME280;24468;52.128;9.278;2023-04-06T07:10:05;100983.22;;;4.05;100.00
38718;BME280;24468;52.128;9.278;2023-04-06T07:12:31;100966.91;;;4.31;100.00
38718;BME280;24468;52.128;9.278;2023-04-06T07:14:56;100968.50;;;4.46;100.00
38718;BME280;24468;52.128;9.278;2023-04-06T07:17:22;100969.09;;;4.70;100.00
38718;BME280;24468;52.128;9.278;2023-04-06T07:19:47;100971.44;;;4.93;100.00
38718;BME280;24468;52.128;9.278;2023-04-06T07:22:13;100974.06;;;4.97;100.00
38718;BME280;24468;52.128;9.278;2023-04-06T07:24:38;100973.28;;;4.87;100.00
38718;BME280;24468;52.128;9.278;2023-04-06T07:27:04;100963.38;;;4.97;100.00
38718;BME280;24468;52.128;9.278;2023-04-06T07:29:30;100962.06;;;5.24;100.00
38718;BME280;24468;52.128;9.278;2023-04-06T07:31:55;100962.06;;;5.23;100.00
38718;BME280;24468;52.128;9.278;2023-04-06T07:34:22;100965.16;;;5.54;100.00
38718;BME280;24468;52.128;9.278;2023-04-06T07:36:47;100959.50;;;5.69;97.50
38718;BME280;24468;52.128;9.278;2023-04-06T07:39:13;100949.94;;;6.07;96.05
38718;BME280;24468;52.128;9.278;2023-04-06T07:41:39;100958.75;;;6.12;93.82
38718;BME280;24468;52.128;9.278;2023-04-06T07:44:05;100954.16;;;5.71;91.32
38718;BME280;24468;52.128;9.278;2023-04-06T07:46:31;100953.47;;;5.56;92.45
38718;BME280;24468;52.128;9.278;2023-04-06T07:48:59;100962.22;;;5.68;91.25
38718;BME280;24468;52.128;9.278;2023-04-06T07:51:24;100954.34;;;6.10;90.44
38718;BME280;24468;52.128;9.278;2023-04-06T07:53:51;100950.31;;;6.32;89.30
38718;BME280;24468;52.128;9.278;2023-04-06T07:56:17;100951.03;;;6.40;87.59
38718;BME280;24468;52.128;9.278;2023-04-06T07:58:43;100944.13;;;6.72;86.68
38718;BME280;24468;52.128;9.278;2023-04-06T08:01:09;100948.41;;;6.81;85.70
38718;BME280;24468;52.128;9.278;2023-04-06T08:03:35;100941.88;;;6.91;84.99
38718;BME280;24468;52.128;9.278;2023-04-06T08:06:01;100935.94;;;7.16;85.04
38718;BME280;24468;52.128;9.278;2023-04-06T08:08:27;100939.47;;;7.19;83.79
38718;BME280;24468;52.128;9.278;2023-04-06T08:10:53;100946.22;;;7.35;81.69
38718;BME280;24468;52.128;9.278;2023-04-06T08:13:19;100937.06;;;7.43;80.85
38718;BME280;24468;52.128;9.278;2023-04-06T08:15:44;100941.59;;;7.05;79.22
38718;BME280;24468;52.128;9.278;2023-04-06T08:18:10;100938.66;;;7.51;79.56
38718;BME280;24468;52.128;9.278;2023-04-06T08:20:36;100936.31;;;7.38;79.99
38718;BME280;24468;52.128;9.278;2023-04-06T08:23:02;100934.72;;;7.65;78.74
38718;BME280;24468;52.128;9.278;2023-04-06T08:25:27;100934.69;;;7.66;75.52
38718;BME280;24468;52.128;9.278;2023-04-06T08:27:53;100929.41;;;7.63;75.65
38718;BME280;24468;52.128;9.278;2023-04-06T08:30:18;100931.75;;;7.75;75.38
38718;BME280;24468;52.128;9.278;2023-04-06T08:32:45;100928.41;;;8.00;72.42
38718;BME280;24468;52.128;9.278;2023-04-06T08:35:11;100927.78;;;7.90;72.35
38718;BME280;24468;52.128;9.278;2023-04-06T08:37:37;100921.47;;;8.24;73.16
38718;BME280;24468;52.128;9.278;2023-04-06T08:40:04;100919.84;;;8.50;72.93
38718;BME280;24468;52.128;9.278;2023-04-06T08:42:32;100921.53;;;8.83;69.96
38718;BME280;24468;52.128;9.278;2023-04-06T08:44:59;100919.50;;;9.18;66.02
38718;BME280;24468;52.128;9.278;2023-04-06T08:47:25;100906.06;;;9.45;62.54
38718;BME280;24468;52.128;9.278;2023-04-06T08:49:52;100906.81;;;9.75;61.53
38718;BME280;24468;52.128;9.278;2023-04-06T08:52:19;100902.78;;;9.87;60.49
38718;BME280;24468;52.128;9.278;2023-04-06T08:54:45;100906.38;;;10.12;59.33
38718;BME280;24468;52.128;9.278;2023-04-06T08:57:11;100900.13;;;10.37;57.59
38718;BME280;24468;52.128;9.278;2023-04-06T08:59:38;100898.16;;;10.40;56.27
38718;BME280;24468;52.128;9.278;2023-04-06T09:02:04;100904.22;;;10.22;57.08
38718;BME280;24468;52.128;9.278;2023-04-06T09:04:33;100901.03;;;10.36;55.79
38718;BME280;24468;52.128;9.278;2023-04-06T09:07:00;100899.16;;;10.61;55.38
38718;BME280;24468;52.128;9.278;2023-04-06T09:09:26;100896.50;;;10.83;54.89
38718;BME280;24468;52.128;9.278;2023-04-06T09:11:52;100900.09;;;10.84;54.70
38718;BME280;24468;52.128;9.278;2023-04-06T09:14:36;100890.03;;;11.09;51.74
38718;BME280;24468;52.128;9.278;2023-04-06T09:17:02;100888.09;;;11.13;53.73
38718;BME280;24468;52.128;9.278;2023-04-06T09:19:28;100888.06;;;11.35;51.01
38718;BME280;24468;52.128;9.278;2023-04-06T09:22:06;100891.28;;;11.45;49.52
38718;BME280;24468;52.128;9.278;2023-04-06T09:24:52;100885.22;;;11.60;49.33
38718;BME280;24468;52.128;9.278;2023-04-06T09:27:30;100874.22;;;11.85;49.43
38718;BME280;24468;52.128;9.278;2023-04-06T09:30:11;100877.25;;;11.77;49.55
38718;BME280;24468;52.128;9.278;2023-04-06T09:32:52;100874.13;;;11.66;48.90
38718;BME280;24468;52.128;9.278;2023-04-06T09:35:19;100863.78;;;11.55;49.71
38718;BME280;24468;52.128;9.278;2023-04-06T09:37:49;100873.88;;;11.93;50.03
38718;BME280;24468;52.128;9.278;2023-04-06T09:40:15;100867.03;;;11.84;49.67
38718;BME280;24468;52.128;9.278;2023-04-06T09:42:45;100862.41;;;11.88;48.54
38718;BME280;24468;52.128;9.278;2023-04-06T09:45:12;100866.34;;;12.20;49.07
38718;BME280;24468;52.128;9.278;2023-04-06T09:47:42;100862.25;;;12.51;47.64
38718;BME280;24468;52.128;9.278;2023-04-06T09:50:10;100857.25;;;12.60;46.77
38718;BME280;24468;52.128;9.278;2023-04-06T09:52:48;100850.31;;;12.55;46.03
38718;BME280;24468;52.128;9.278;2023-04-06T09:55:42;100863.16;;;12.50;44.79
38718;BME280;24468;52.128;9.278;2023-04-06T09:58:18;100864.41;;;12.80;45.62
38718;BME280;24468;52.128;9.278;2023-04-06T10:01:01;100854.72;;;12.94;44.23
38718;BME280;24468;52.128;9.278;2023-04-06T10:04:17;100850.81;;;13.18;42.92
38718;BME280;24468;52.128;9.278;2023-04-06T10:06:47;100856.03;;;13.04;43.71
38718;BME280;24468;52.128;9.278;2023-04-06T10:09:19;100848.66;;;12.88;42.44
38718;BME280;24468;52.128;9.278;2023-04-06T10:11:47;100850.13;;;12.77;42.30
38718;BME280;24468;52.128;9.278;2023-04-06T10:14:15;100851.84;;;12.60;41.81
38718;BME280;24468;52.128;9.278;2023-04-06T10:16:42;100846.63;;;12.75;42.02
38718;BME280;24468;52.128;9.278;2023-04-06T10:19:18;100849.13;;;12.60;41.40
38718;BME280;24468;52.128;9.278;2023-04-06T10:21:49;100850.81;;;12.44;41.50
38718;BME280;24468;52.128;9.278;2023-04-06T10:24:16;100847.25;;;12.99;41.49
38718;BME280;24468;52.128;9.278;2023-04-06T10:26:42;100835.28;;;12.85;40.96
38718;BME280;24468;52.128;9.278;2023-04-06T10:29:08;100833.59;;;13.19;41.34
38718;BME280;24468;52.128;9.278;2023-04-06T10:31:40;100849.91;;;13.00;40.28
38718;BME280;24468;52.128;9.278;2023-04-06T10:34:08;100838.09;;;13.01;41.10
38718;BME280;24468;52.128;9.278;2023-04-06T10:36:34;100840.09;;;12.98;40.95
38718;BME280;24468;52.128;9.278;2023-04-06T10:39:05;100839.72;;;13.42;41.01
38718;BME280;24468;52.128;9.278;2023-04-06T10:41:44;100837.78;;;12.71;39.43
38718;BME280;24468;52.128;9.278;2023-04-06T10:44:23;100832.69;;;13.38;40.21
38718;BME280;24468;52.128;9.278;2023-04-06T10:46:58;100832.47;;;13.93;40.88
38718;BME280;24468;52.128;9.278;2023-04-06T10:49:26;100833.41;;;13.41;40.54
38718;BME280;24468;52.128;9.278;2023-04-06T10:51:54;100839.06;;;13.89;40.90
38718;BME280;24468;52.128;9.278;2023-04-06T10:54:22;100832.94;;;14.01;40.04
38718;BME280;24468;52.128;9.278;2023-04-06T10:56:49;100826.41;;;14.05;40.24
38718;BME280;24468;52.128;9.278;2023-04-06T10:59:21;100824.56;;;13.72;39.57
38718;BME280;24468;52.128;9.278;2023-04-06T11:01:48;100821.00;;;14.05;39.98
38718;BME280;24468;52.128;9.278;2023-04-06T11:04:18;100812.84;;;13.72;39.69
38718;BME280;24468;52.128;9.278;2023-04-06T11:06:48;100819.41;;;14.34;40.18
38718;BME280;24468;52.128;9.278;2023-04-06T11:09:27;100812.16;;;14.66;39.15
38718;BME280;24468;52.128;9.278;2023-04-06T11:11:54;100808.25;;;14.39;39.54
38718;BME280;24468;52.128;9.278;2023-04-06T11:14:20;100811.53;;;14.77;39.82
38718;BME280;24468;52.128;9.278;2023-04-06T11:16:47;100798.28;;;14.23;39.60
38718;BME280;24468;52.128;9.278;2023-04-06T11:19:16;100808.25;;;14.56;41.02
38718;BME280;24468;52.128;9.278;2023-04-06T11:21:47;100814.03;;;14.33;40.56
38718;BME280;24468;52.128;9.278;2023-04-06T11:24:19;100808.50;;;14.67;39.73
38718;BME280;24468;52.128;9.278;2023-04-06T11:26:56;100803.75;;;14.87;40.23
38718;BME280;24468;52.128;9.278;2023-04-06T11:29:25;100812.47;;;14.44;40.02
38718;BME280;24468;52.128;9.278;2023-04-06T11:32:05;100800.78;;;14.11;39.90
38718;BME280;24468;52.128;9.278;2023-04-06T11:34:37;100799.81;;;14.61;40.22
38718;BME280;24468;52.128;9.278;2023-04-06T11:37:13;100782.41;;;14.16;39.94
38718;BME280;24468;52.128;9.278;2023-04-06T11:42:28;100780.03;;;15.21;40.40
38718;BME280;24468;52.128;9.278;2023-04-06T11:44:59;100784.97;;;14.98;39.89
38718;BME280;24468;52.128;9.278;2023-04-06T11:47:38;100779.38;;;14.85;39.08
38718;BME280;24468;52.128;9.278;2023-04-06T11:50:13;100782.09;;;15.31;39.74
38718;BME280;24468;52.128;9.278;2023-04-06T11:52:40;100778.03;;;15.08;39.42
38718;BME280;24468;52.128;9.278;2023-04-06T11:55:15;100774.84;;;15.16;39.54
38718;BME280;24468;52.128;9.278;2023-04-06T11:57:42;100770.94;;;15.06;39.71
38718;BME280;24468;52.128;9.278;2023-04-06T12:00:09;100759.09;;;15.07;39.19
38718;BME280;24468;52.128;9.278;2023-04-06T12:02:39;100763.00;;;15.03;39.58
38718;BME280;24468;52.128;9.278;2023-04-06T12:05:06;100768.31;;;14.25;38.77
38718;BME280;24468;52.128;9.278;2023-04-06T12:07:32;100764.66;;;14.42;38.45
38718;BME280;24468;52.128;9.278;2023-04-06T12:10:00;100753.28;;;15.13;38.38
38718;BME280;24468;52.128;9.278;2023-04-06T12:12:26;100757.44;;;15.34;38.54
38718;BME280;24468;52.128;9.278;2023-04-06T12:14:52;100754.34;;;15.10;38.28
38718;BME280;24468;52.128;9.278;2023-04-06T12:17:19;100745.09;;;14.99;38.10
38718;BME280;24468;52.128;9.278;2023-04-06T12:19:45;100750.13;;;15.21;37.30
38718;BME280;24468;52.128;9.278;2023-04-06T12:22:11;100744.78;;;15.64;38.45
38718;BME280;24468;52.128;9.278;2023-04-06T12:24:36;100743.75;;;15.81;38.27
38718;BME280;24468;52.128;9.278;2023-04-06T12:27:02;100746.28;;;15.84;38.37
38718;BME280;24468;52.128;9.278;2023-04-06T12:29:28;100737.81;;;15.74;38.28
38718;BME280;24468;52.128;9.278;2023-04-06T12:31:54;100744.81;;;15.78;38.04
38718;BME280;24468;52.128;9.278;2023-04-06T12:34:19;100747.84;;;15.57;38.32
38718;BME280;24468;52.128;9.278;2023-04-06T12:36:45;100747.31;;;15.67;38.07
38718;BME280;24468;52.128;9.278;2023-04-06T12:39:10;100742.69;;;15.69;37.39
38718;BME280;24468;52.128;9.278;2023-04-06T12:41:37;100724.22;;;15.88;37.16
38718;BME280;24468;52.128;9.278;2023-04-06T12:44:05;100727.69;;;15.90;36.99
38718;BME280;24468;52.128;9.278;2023-04-06T12:46:31;100744.22;;;15.87;38.34
38718;BME280;24468;52.128;9.278;2023-04-06T12:48:56;100746.88;;;15.74;37.44
38718;BME280;24468;52.128;9.278;2023-04-06T12:51:24;100730.25;;;16.08;36.99
38718;BME280;24468;52.128;9.278;2023-04-06T12:53:50;100720.41;;;16.05;36.41